Butte City, California
Current Conditions -  °F | °C
As of 8:53 AM on Thursday 27 Nov 2014 (Local Time) from KOVE Reporting Station
Clear Clear  
Wind Chill: 50°   Ceiling: Unl
Heat Index: 50°   Visibility: 9mi
Dew Point: 47°   Wind: 5mph
Humidity: 89%   Direction: 310°NW
Pressure: 30.22"   Gusts: NA
Location:  39.46°N, 121.99°W
Report Text: KOVE 271653Z AUTO 31004KT 9SM CLR 10/08 A3022 RMK AO2 SLP235 T01000083
Loading
Personal Weather Stations






























Interactive Weather Map New forecast layout! Learn more

10-Day Weather Forecast

Advertisements
Track Severe Weather on mobile